KENV

Wendover Airport

Wendover, Utah, USA
KENV 162324Z 1700/1724 VRB04KT P6SM SCT010 BKN070 FM171400 VRB04KT P6SM VCSH SCT020 BKN040 FM171800 VRB04KT P6SM -SHRA SCT010 BKN035
Issued Valid From Valid To
Jan-16 @ 23:24 UTC
(2 hours ago)
Jan-17 @ 00:00 UTC
(an hour ago)
Jan-18 @ 00:00 UTC
(in 23 hours)
Jan-17 @ 00:00 to Jan-17 @ 14:00
KENV 162324Z 1700/1724 VRB04KT P6SM SCT010 BKN070
Wind Visibility Clouds
Variable at 4 knots Greater than 6 miles
  • Scattered at 1,000' AGL
  • Broken at 7,000' AGL
From Jan-17 @ 14:00 to Jan-17 @ 18:00
FM171400 VRB04KT P6SM VCSH SCT020 BKN040
Wind Visibility Clouds
Variable at 4 knots Greater than 6 miles
  • Scattered at 2,000' AGL
  • Broken at 4,000' AGL
From Jan-17 @ 18:00 to Jan-18 @ 00:00
FM171800 VRB04KT P6SM -SHRA SCT010 BKN035
Wind Visibility Clouds Conditions
Variable at 4 knots Greater than 6 miles
  • Scattered at 1,000' AGL
  • Broken at 3,500' AGL
  • Light Rain
KENV 162324Z 1700/1724 VRB04KT P6SM SCT010 BKN070 FM171400 VRB04KT P6SM VCSH SCT020 BKN040 FM171800 VRB04KT P6SM -SHRA SCT010 BKN035
Issued Jan-16 @ 23:24 UTC
(2 hours ago)
Valid From Jan-17 @ 00:00 UTC
(an hour ago)
Valid To Jan-18 @ 00:00 UTC
(in 23 hours)
Jan-17 @ 00:00 - Jan-17 @ 14:00
Wind Visibility
Variable at 4 knots Greater than 6 miles
Clouds
  • Scattered at 1,000' AGL
  • Broken at 7,000' AGL
From Jan-17 @ 14:00 - Jan-17 @ 18:00
Wind Visibility
Variable at 4 knots Greater than 6 miles
Clouds
  • Scattered at 2,000' AGL
  • Broken at 4,000' AGL
From Jan-17 @ 18:00 - Jan-18 @ 00:00
Wind Visibility
Variable at 4 knots Greater than 6 miles
Clouds
  • Scattered at 1,000' AGL
  • Broken at 3,500' AGL
Conditions
  • Light Rain